sensor_id;sensor_type;location;lat;lon;timestamp;P1;durP1;ratioP1;P2;durP2;ratioP2
72369;SDS011;60343;-32.030;115.880;2023-03-01T00:01:36;3.67;;;0.30;;
72369;SDS011;60343;-32.030;115.880;2023-03-01T00:04:11;1.73;;;0.35;;
72369;SDS011;60343;-32.030;115.880;2023-03-01T00:06:45;1.38;;;0.25;;
72369;SDS011;60343;-32.030;115.880;2023-03-01T00:09:20;2.03;;;0.35;;
72369;SDS011;60343;-32.030;115.880;2023-03-01T00:12:00;2.88;;;0.28;;
72369;SDS011;60343;-32.030;115.880;2023-03-01T00:14:36;2.17;;;0.30;;
72369;SDS011;60343;-32.030;115.880;2023-03-01T00:17:10;2.22;;;0.38;;
72369;SDS011;60343;-32.030;115.880;2023-03-01T00:19:45;1.95;;;0.30;;
72369;SDS011;60343;-32.030;115.880;2023-03-01T00:22:19;1.60;;;0.10;;
72369;SDS011;60343;-32.030;115.880;2023-03-01T00:24:54;2.00;;;0.35;;
72369;SDS011;60343;-32.030;115.880;2023-03-01T00:27:34;2.55;;;0.40;;
72369;SDS011;60343;-32.030;115.880;2023-03-01T00:30:09;1.88;;;0.32;;
72369;SDS011;60343;-32.030;115.880;2023-03-01T00:32:44;2.67;;;0.30;;
72369;SDS011;60343;-32.030;115.880;2023-03-01T00:35:19;1.77;;;0.15;;
72369;SDS011;60343;-32.030;115.880;2023-03-01T00:37:53;4.07;;;0.40;;
72369;SDS011;60343;-32.030;115.880;2023-03-01T00:40:28;0.95;;;0.20;;
72369;SDS011;60343;-32.030;115.880;2023-03-01T00:43:09;2.08;;;0.30;;
72369;SDS011;60343;-32.030;115.880;2023-03-01T00:45:43;2.72;;;0.30;;
72369;SDS011;60343;-32.030;115.880;2023-03-01T00:48:18;4.43;;;0.30;;
72369;SDS011;60343;-32.030;115.880;2023-03-01T00:50:53;1.13;;;0.20;;
72369;SDS011;60343;-32.030;115.880;2023-03-01T00:53:28;1.73;;;0.20;;
72369;SDS011;60343;-32.030;115.880;2023-03-01T00:56:02;2.72;;;0.40;;
72369;SDS011;60343;-32.030;115.880;2023-03-01T00:58:45;3.20;;;0.38;;
72369;SDS011;60343;-32.030;115.880;2023-03-01T01:01:21;0.90;;;0.10;;
72369;SDS011;60343;-32.030;115.880;2023-03-01T01:03:57;2.47;;;0.30;;
72369;SDS011;60343;-32.030;115.880;2023-03-01T01:06:34;3.50;;;0.60;;
72369;SDS011;60343;-32.030;115.880;2023-03-01T01:09:09;4.78;;;0.30;;
72369;SDS011;60343;-32.030;115.880;2023-03-01T01:11:46;1.17;;;0.20;;
72369;SDS011;60343;-32.030;115.880;2023-03-01T01:14:26;2.63;;;0.28;;
72369;SDS011;60343;-32.030;115.880;2023-03-01T01:17:01;2.75;;;0.30;;
72369;SDS011;60343;-32.030;115.880;2023-03-01T01:19:36;1.73;;;0.20;;
72369;SDS011;60343;-32.030;115.880;2023-03-01T01:22:10;0.75;;;0.10;;
72369;SDS011;60343;-32.030;115.880;2023-03-01T01:24:45;1.13;;;0.25;;
72369;SDS011;60343;-32.030;115.880;2023-03-01T01:27:20;1.20;;;0.28;;
72369;SDS011;60343;-32.030;115.880;2023-03-01T01:30:00;2.33;;;0.20;;
72369;SDS011;60343;-32.030;115.880;2023-03-01T01:32:36;4.32;;;0.40;;
72369;SDS011;60343;-32.030;115.880;2023-03-01T01:35:11;1.20;;;0.20;;
72369;SDS011;60343;-32.030;115.880;2023-03-01T01:37:46;2.58;;;0.17;;
72369;SDS011;60343;-32.030;115.880;2023-03-01T01:40:21;1.15;;;0.20;;
72369;SDS011;60343;-32.030;115.880;2023-03-01T01:42:56;0.90;;;0.20;;
72369;SDS011;60343;-32.030;115.880;2023-03-01T01:45:37;2.33;;;0.20;;
72369;SDS011;60343;-32.030;115.880;2023-03-01T01:48:12;1.15;;;0.30;;
72369;SDS011;60343;-32.030;115.880;2023-03-01T01:50:51;1.13;;;0.20;;
72369;SDS011;60343;-32.030;115.880;2023-03-01T01:53:29;0.90;;;0.20;;
72369;SDS011;60343;-32.030;115.880;2023-03-01T01:56:04;1.98;;;0.20;;
72369;SDS011;60343;-32.030;115.880;2023-03-01T01:58:43;5.05;;;0.30;;
72369;SDS011;60343;-32.030;115.880;2023-03-01T02:01:25;2.88;;;0.30;;
72369;SDS011;60343;-32.030;115.880;2023-03-01T02:04:00;5.55;;;0.45;;
72369;SDS011;60343;-32.030;115.880;2023-03-01T02:06:36;1.70;;;0.20;;
72369;SDS011;60343;-32.030;115.880;2023-03-01T02:09:14;1.30;;;0.22;;
72369;SDS011;60343;-32.030;115.880;2023-03-01T02:11:51;0.63;;;0.15;;
72369;SDS011;60343;-32.030;115.880;2023-03-01T02:14:26;3.55;;;0.30;;
72369;SDS011;60343;-32.030;115.880;2023-03-01T02:17:06;3.47;;;0.40;;
72369;SDS011;60343;-32.030;115.880;2023-03-01T02:19:44;0.93;;;0.20;;
72369;SDS011;60343;-32.030;115.880;2023-03-01T02:22:33;1.45;;;0.20;;
72369;SDS011;60343;-32.030;115.880;2023-03-01T02:28:08;2.00;;;0.20;;
72369;SDS011;60343;-32.030;115.880;2023-03-01T02:30:58;2.03;;;0.30;;
72369;SDS011;60343;-32.030;115.880;2023-03-01T02:33:42;3.30;;;0.20;;
72369;SDS011;60343;-32.030;115.880;2023-03-01T02:36:19;1.48;;;0.20;;
72369;SDS011;60343;-32.030;115.880;2023-03-01T02:38:58;1.15;;;0.20;;
72369;SDS011;60343;-32.030;115.880;2023-03-01T02:41:41;3.67;;;0.40;;
72369;SDS011;60343;-32.030;115.880;2023-03-01T02:44:25;1.70;;;0.40;;
72369;SDS011;60343;-32.030;115.880;2023-03-01T02:47:00;3.20;;;0.20;;
72369;SDS011;60343;-32.030;115.880;2023-03-01T02:49:37;2.65;;;0.30;;
72369;SDS011;60343;-32.030;115.880;2023-03-01T02:52:17;1.50;;;0.20;;
72369;SDS011;60343;-32.030;115.880;2023-03-01T02:55:03;3.00;;;0.22;;
72369;SDS011;60343;-32.030;115.880;2023-03-01T02:57:42;2.20;;;0.20;;
72369;SDS011;60343;-32.030;115.880;2023-03-01T03:00:26;1.15;;;0.30;;
72369;SDS011;60343;-32.030;115.880;2023-03-01T03:03:06;1.77;;;0.20;;
72369;SDS011;60343;-32.030;115.880;2023-03-01T03:05:41;2.80;;;0.30;;
72369;SDS011;60343;-32.030;115.880;2023-03-01T03:08:16;1.98;;;0.40;;
72369;SDS011;60343;-32.030;115.880;2023-03-01T03:10:50;1.17;;;0.20;;
72369;SDS011;60343;-32.030;115.880;2023-03-01T03:13:25;1.05;;;0.20;;
72369;SDS011;60343;-32.030;115.880;2023-03-01T03:16:06;1.70;;;0.20;;
72369;SDS011;60343;-32.030;115.880;2023-03-01T03:18:41;4.95;;;0.20;;
72369;SDS011;60343;-32.030;115.880;2023-03-01T03:21:17;1.50;;;0.20;;
72369;SDS011;60343;-32.030;115.880;2023-03-01T03:23:53;2.08;;;0.20;;
72369;SDS011;60343;-32.030;115.880;2023-03-01T03:26:28;1.25;;;0.30;;
72369;SDS011;60343;-32.030;115.880;2023-03-01T03:29:02;3.83;;;0.30;;
72369;SDS011;60343;-32.030;115.880;2023-03-01T03:31:43;4.53;;;0.30;;
72369;SDS011;60343;-32.030;115.880;2023-03-01T03:34:17;2.85;;;0.30;;
72369;SDS011;60343;-32.030;115.880;2023-03-01T03:36:53;5.38;;;0.45;;
72369;SDS011;60343;-32.030;115.880;2023-03-01T03:39:28;0.93;;;0.20;;
72369;SDS011;60343;-32.030;115.880;2023-03-01T03:42:03;1.17;;;0.30;;
72369;SDS011;60343;-32.030;115.880;2023-03-01T03:44:37;3.63;;;0.35;;
72369;SDS011;60343;-32.030;115.880;2023-03-01T03:47:17;2.20;;;0.20;;
72369;SDS011;60343;-32.030;115.880;2023-03-01T03:49:52;3.58;;;0.35;;
72369;SDS011;60343;-32.030;115.880;2023-03-01T03:52:27;4.88;;;0.40;;
72369;SDS011;60343;-32.030;115.880;2023-03-01T03:55:02;2.65;;;0.30;;
72369;SDS011;60343;-32.030;115.880;2023-03-01T03:57:38;4.30;;;0.25;;
72369;SDS011;60343;-32.030;115.880;2023-03-01T04:00:15;2.40;;;0.32;;
72369;SDS011;60343;-32.030;115.880;2023-03-01T04:02:57;1.40;;;0.20;;
72369;SDS011;60343;-32.030;115.880;2023-03-01T04:05:32;3.22;;;0.20;;
72369;SDS011;60343;-32.030;115.880;2023-03-01T04:08:07;0.95;;;0.10;;
72369;SDS011;60343;-32.030;115.880;2023-03-01T04:10:42;1.27;;;0.20;;
72369;SDS011;60343;-32.030;115.880;2023-03-01T04:13:19;1.75;;;0.10;;
72369;SDS011;60343;-32.030;115.880;2023-03-01T04:15:54;1.10;;;0.30;;
72369;SDS011;60343;-32.030;115.880;2023-03-01T04:18:35;1.92;;;0.20;;
72369;SDS011;60343;-32.030;115.880;2023-03-01T04:21:09;1.13;;;0.20;;
72369;SDS011;60343;-32.030;115.880;2023-03-01T04:23:44;2.25;;;0.30;;
72369;SDS011;60343;-32.030;115.880;2023-03-01T04:26:19;1.83;;;0.30;;
72369;SDS011;60343;-32.030;115.880;2023-03-01T04:28:54;2.88;;;0.38;;
72369;SDS011;60343;-32.030;115.880;2023-03-01T04:31:28;1.38;;;0.20;;
72369;SDS011;60343;-32.030;115.880;2023-03-01T04:34:08;2.22;;;0.30;;
72369;SDS011;60343;-32.030;115.880;2023-03-01T04:36:43;1.35;;;0.30;;
72369;SDS011;60343;-32.030;115.880;2023-03-01T04:39:17;2.17;;;0.20;;
72369;SDS011;60343;-32.030;115.880;2023-03-01T04:41:52;4.85;;;0.20;;
72369;SDS011;60343;-32.030;115.880;2023-03-01T04:44:26;3.55;;;0.20;;
72369;SDS011;60343;-32.030;115.880;2023-03-01T04:47:01;3.13;;;0.57;;
72369;SDS011;60343;-32.030;115.880;2023-03-01T04:49:41;1.75;;;0.30;;
72369;SDS011;60343;-32.030;115.880;2023-03-01T04:52:16;1.30;;;0.20;;
72369;SDS011;60343;-32.030;115.880;2023-03-01T04:54:51;1.50;;;0.20;;
72369;SDS011;60343;-32.030;115.880;2023-03-01T04:57:26;0.88;;;0.20;;
72369;SDS011;60343;-32.030;115.880;2023-03-01T05:00:00;2.42;;;0.40;;
72369;SDS011;60343;-32.030;115.880;2023-03-01T05:02:46;1.48;;;0.30;;
72369;SDS011;60343;-32.030;115.880;2023-03-01T05:05:30;2.42;;;0.30;;
72369;SDS011;60343;-32.030;115.880;2023-03-01T05:08:07;3.15;;;0.28;;
72369;SDS011;60343;-32.030;115.880;2023-03-01T05:10:43;4.18;;;0.40;;
72369;SDS011;60343;-32.030;115.880;2023-03-01T05:13:19;2.67;;;0.30;;
72369;SDS011;60343;-32.030;115.880;2023-03-01T05:15:57;1.90;;;0.30;;
72369;SDS011;60343;-32.030;115.880;2023-03-01T05:18:32;2.03;;;0.20;;
72369;SDS011;60343;-32.030;115.880;2023-03-01T05:21:13;2.30;;;0.25;;
72369;SDS011;60343;-32.030;115.880;2023-03-01T05:23:48;1.30;;;0.20;;
72369;SDS011;60343;-32.030;115.880;2023-03-01T05:26:23;1.27;;;0.25;;
72369;SDS011;60343;-32.030;115.880;2023-03-01T05:28:57;2.58;;;0.25;;
72369;SDS011;60343;-32.030;115.880;2023-03-01T05:31:32;2.33;;;0.30;;
72369;SDS011;60343;-32.030;115.880;2023-03-01T05:34:07;1.73;;;0.20;;
72369;SDS011;60343;-32.030;115.880;2023-03-01T05:36:47;2.10;;;0.20;;
72369;SDS011;60343;-32.030;115.880;2023-03-01T05:39:23;3.50;;;0.40;;
72369;SDS011;60343;-32.030;115.880;2023-03-01T05:41:59;0.85;;;0.20;;
72369;SDS011;60343;-32.030;115.880;2023-03-01T05:44:34;1.08;;;0.20;;
72369;SDS011;60343;-32.030;115.880;2023-03-01T05:47:09;2.25;;;0.30;;
72369;SDS011;60343;-32.030;115.880;2023-03-01T05:49:44;2.30;;;0.30;;
72369;SDS011;60343;-32.030;115.880;2023-03-01T05:52:24;3.03;;;0.20;;
72369;SDS011;60343;-32.030;115.880;2023-03-01T05:54:58;1.58;;;0.30;;
72369;SDS011;60343;-32.030;115.880;2023-03-01T05:57:33;3.45;;;0.45;;
72369;SDS011;60343;-32.030;115.880;2023-03-01T06:00:08;2.40;;;0.30;;
72369;SDS011;60343;-32.030;115.880;2023-03-01T06:02:43;2.95;;;0.20;;
72369;SDS011;60343;-32.030;115.880;2023-03-01T06:05:18;3.42;;;0.40;;
72369;SDS011;60343;-32.030;115.880;2023-03-01T06:07:58;1.27;;;0.30;;
72369;SDS011;60343;-32.030;115.880;2023-03-01T06:10:34;3.05;;;0.20;;
72369;SDS011;60343;-32.030;115.880;2023-03-01T06:13:09;1.00;;;0.15;;
72369;SDS011;60343;-32.030;115.880;2023-03-01T06:15:44;0.82;;;0.20;;
72369;SDS011;60343;-32.030;115.880;2023-03-01T06:18:19;2.08;;;0.22;;
72369;SDS011;60343;-32.030;115.880;2023-03-01T06:20:54;1.38;;;0.10;;
72369;SDS011;60343;-32.030;115.880;2023-03-01T06:23:35;1.02;;;0.30;;
72369;SDS011;60343;-32.030;115.880;2023-03-01T06:26:09;2.47;;;0.20;;
72369;SDS011;60343;-32.030;115.880;2023-03-01T06:28:44;3.00;;;0.50;;
72369;SDS011;60343;-32.030;115.880;2023-03-01T06:31:19;1.17;;;0.20;;
72369;SDS011;60343;-32.030;115.880;2023-03-01T06:33:53;3.45;;;0.30;;
72369;SDS011;60343;-32.030;115.880;2023-03-01T06:36:28;2.33;;;0.38;;
72369;SDS011;60343;-32.030;115.880;2023-03-01T06:39:08;1.75;;;0.40;;
72369;SDS011;60343;-32.030;115.880;2023-03-01T06:41:43;1.15;;;0.22;;
72369;SDS011;60343;-32.030;115.880;2023-03-01T06:44:18;2.65;;;0.40;;
72369;SDS011;60343;-32.030;115.880;2023-03-01T06:46:53;2.30;;;0.30;;
72369;SDS011;60343;-32.030;115.880;2023-03-01T06:49:27;1.25;;;0.50;;
72369;SDS011;60343;-32.030;115.880;2023-03-01T06:52:02;1.70;;;0.20;;
72369;SDS011;60343;-32.030;115.880;2023-03-01T06:54:42;3.22;;;0.32;;
72369;SDS011;60343;-32.030;115.880;2023-03-01T06:57:17;4.03;;;0.30;;
72369;SDS011;60343;-32.030;115.880;2023-03-01T06:59:51;1.85;;;0.20;;
72369;SDS011;60343;-32.030;115.880;2023-03-01T07:02:26;1.45;;;0.20;;
72369;SDS011;60343;-32.030;115.880;2023-03-01T07:05:00;3.97;;;0.30;;
72369;SDS011;60343;-32.030;115.880;2023-03-01T07:07:35;1.30;;;0.30;;
72369;SDS011;60343;-32.030;115.880;2023-03-01T07:10:16;2.67;;;0.30;;
72369;SDS011;60343;-32.030;115.880;2023-03-01T07:12:51;3.08;;;0.40;;
72369;SDS011;60343;-32.030;115.880;2023-03-01T07:15:28;1.48;;;0.30;;
72369;SDS011;60343;-32.030;115.880;2023-03-01T07:18:03;2.78;;;0.30;;
72369;SDS011;60343;-32.030;115.880;2023-03-01T07:20:37;1.58;;;0.25;;
72369;SDS011;60343;-32.030;115.880;2023-03-01T07:23:13;2.30;;;0.40;;
72369;SDS011;60343;-32.030;115.880;2023-03-01T07:25:57;1.40;;;0.30;;
72369;SDS011;60343;-32.030;115.880;2023-03-01T07:28:31;2.28;;;0.20;;
72369;SDS011;60343;-32.030;115.880;2023-03-01T07:31:07;3.50;;;0.25;;
72369;SDS011;60343;-32.030;115.880;2023-03-01T07:33:42;1.80;;;0.30;;
72369;SDS011;60343;-32.030;115.880;2023-03-01T07:36:17;1.25;;;0.40;;
72369;SDS011;60343;-32.030;115.880;2023-03-01T07:38:51;1.58;;;0.30;;
72369;SDS011;60343;-32.030;115.880;2023-03-01T07:41:34;2.50;;;0.47;;
72369;SDS011;60343;-32.030;115.880;2023-03-01T07:44:08;1.77;;;0.35;;
72369;SDS011;60343;-32.030;115.880;2023-03-01T07:46:43;1.08;;;0.22;;
72369;SDS011;60343;-32.030;115.880;2023-03-01T07:49:18;2.50;;;0.20;;
72369;SDS011;60343;-32.030;115.880;2023-03-01T07:51:53;2.25;;;0.30;;
72369;SDS011;60343;-32.030;115.880;2023-03-01T07:54:27;1.30;;;0.20;;
72369;SDS011;60343;-32.030;115.880;2023-03-01T07:57:08;1.08;;;0.20;;
72369;SDS011;60343;-32.030;115.880;2023-03-01T07:59:42;5.82;;;0.40;;
72369;SDS011;60343;-32.030;115.880;2023-03-01T08:02:17;2.05;;;0.30;;
72369;SDS011;60343;-32.030;115.880;2023-03-01T08:04:52;2.75;;;0.40;;
72369;SDS011;60343;-32.030;115.880;2023-03-01T08:07:26;1.55;;;0.30;;
72369;SDS011;60343;-32.030;115.880;2023-03-01T08:10:00;1.95;;;0.30;;
72369;SDS011;60343;-32.030;115.880;2023-03-01T08:12:41;3.05;;;0.30;;
72369;SDS011;60343;-32.030;115.880;2023-03-01T08:15:15;0.88;;;0.20;;
72369;SDS011;60343;-32.030;115.880;2023-03-01T08:17:51;3.40;;;0.22;;
72369;SDS011;60343;-32.030;115.880;2023-03-01T08:20:25;2.15;;;0.20;;
72369;SDS011;60343;-32.030;115.880;2023-03-01T08:23:00;0.65;;;0.20;;
72369;SDS011;60343;-32.030;115.880;2023-03-01T08:25:34;2.75;;;0.28;;
72369;SDS011;60343;-32.030;115.880;2023-03-01T08:28:15;1.92;;;0.40;;
72369;SDS011;60343;-32.030;115.880;2023-03-01T08:30:49;4.28;;;0.30;;
72369;SDS011;60343;-32.030;115.880;2023-03-01T08:33:26;1.77;;;0.32;;
72369;SDS011;60343;-32.030;115.880;2023-03-01T08:36:03;3.70;;;0.40;;
72369;SDS011;60343;-32.030;115.880;2023-03-01T08:38:38;3.20;;;0.40;;
72369;SDS011;60343;-32.030;115.880;2023-03-01T08:41:13;2.63;;;0.38;;
72369;SDS011;60343;-32.030;115.880;2023-03-01T08:43:53;5.35;;;0.35;;
72369;SDS011;60343;-32.030;115.880;2023-03-01T08:46:31;2.72;;;0.30;;
72369;SDS011;60343;-32.030;115.880;2023-03-01T08:49:07;4.47;;;0.40;;
72369;SDS011;60343;-32.030;115.880;2023-03-01T08:51:43;4.35;;;0.60;;
72369;SDS011;60343;-32.030;115.880;2023-03-01T08:54:19;1.73;;;0.30;;
72369;SDS011;60343;-32.030;115.880;2023-03-01T08:56:55;2.33;;;0.30;;
72369;SDS011;60343;-32.030;115.880;2023-03-01T08:59:36;2.83;;;0.40;;
72369;SDS011;60343;-32.030;115.880;2023-03-01T09:02:11;1.33;;;0.30;;
72369;SDS011;60343;-32.030;115.880;2023-03-01T09:04:47;2.65;;;0.40;;
72369;SDS011;60343;-32.030;115.880;2023-03-01T09:07:21;1.38;;;0.38;;
72369;SDS011;60343;-32.030;115.880;2023-03-01T09:09:56;3.90;;;0.30;;
72369;SDS011;60343;-32.030;115.880;2023-03-01T09:12:31;2.53;;;0.30;;
72369;SDS011;60343;-32.030;115.880;2023-03-01T09:15:11;3.30;;;0.30;;
72369;SDS011;60343;-32.030;115.880;2023-03-01T09:17:46;3.03;;;0.55;;
72369;SDS011;60343;-32.030;115.880;2023-03-01T09:20:23;4.07;;;0.45;;
72369;SDS011;60343;-32.030;115.880;2023-03-01T09:22:57;2.25;;;0.40;;
72369;SDS011;60343;-32.030;115.880;2023-03-01T09:25:34;2.78;;;0.40;;
72369;SDS011;60343;-32.030;115.880;2023-03-01T09:28:09;1.90;;;0.40;;
72369;SDS011;60343;-32.030;115.880;2023-03-01T09:30:49;4.72;;;0.47;;
72369;SDS011;60343;-32.030;115.880;2023-03-01T09:33:23;1.90;;;0.38;;
72369;SDS011;60343;-32.030;115.880;2023-03-01T09:35:58;4.65;;;0.57;;
72369;SDS011;60343;-32.030;115.880;2023-03-01T09:38:34;2.35;;;0.82;;
72369;SDS011;60343;-32.030;115.880;2023-03-01T09:41:16;4.65;;;0.40;;
72369;SDS011;60343;-32.030;115.880;2023-03-01T09:44:01;4.70;;;0.50;;
72369;SDS011;60343;-32.030;115.880;2023-03-01T09:46:49;4.28;;;0.35;;
72369;SDS011;60343;-32.030;115.880;2023-03-01T09:49:24;2.72;;;0.40;;
72369;SDS011;60343;-32.030;115.880;2023-03-01T09:52:03;1.55;;;0.30;;
72369;SDS011;60343;-32.030;115.880;2023-03-01T09:54:54;4.55;;;0.40;;
72369;SDS011;60343;-32.030;115.880;2023-03-01T09:57:33;3.80;;;0.40;;
72369;SDS011;60343;-32.030;115.880;2023-03-01T10:00:17;4.07;;;0.40;;
72369;SDS011;60343;-32.030;115.880;2023-03-01T10:03:09;1.67;;;0.40;;
72369;SDS011;60343;-32.030;115.880;2023-03-01T10:05:52;4.20;;;0.65;;
72369;SDS011;60343;-32.030;115.880;2023-03-01T10:08:36;2.78;;;0.40;;
72369;SDS011;60343;-32.030;115.880;2023-03-01T10:11:19;4.80;;;0.50;;
72369;SDS011;60343;-32.030;115.880;2023-03-01T10:13:56;1.95;;;0.55;;
72369;SDS011;60343;-32.030;115.880;2023-03-01T10:16:39;2.85;;;0.40;;
72369;SDS011;60343;-32.030;115.880;2023-03-01T10:19:23;2.70;;;0.47;;
72369;SDS011;60343;-32.030;115.880;2023-03-01T10:22:03;2.63;;;0.50;;
72369;SDS011;60343;-32.030;115.880;2023-03-01T10:24:44;3.85;;;0.52;;
72369;SDS011;60343;-32.030;115.880;2023-03-01T10:27:20;1.85;;;0.50;;
72369;SDS011;60343;-32.030;115.880;2023-03-01T10:29:58;2.78;;;0.50;;
72369;SDS011;60343;-32.030;115.880;2023-03-01T10:32:42;3.08;;;0.30;;
72369;SDS011;60343;-32.030;115.880;2023-03-01T10:35:23;2.85;;;0.55;;
72369;SDS011;60343;-32.030;115.880;2023-03-01T10:38:03;2.10;;;0.47;;
72369;SDS011;60343;-32.030;115.880;2023-03-01T10:40:50;3.05;;;0.43;;
72369;SDS011;60343;-32.030;115.880;2023-03-01T10:43:31;5.28;;;0.90;;
72369;SDS011;60343;-32.030;115.880;2023-03-01T10:46:24;2.30;;;0.60;;
72369;SDS011;60343;-32.030;115.880;2023-03-01T10:49:05;2.72;;;0.77;;
72369;SDS011;60343;-32.030;115.880;2023-03-01T10:51:52;4.88;;;0.70;;
72369;SDS011;60343;-32.030;115.880;2023-03-01T10:54:28;1.92;;;0.50;;
72369;SDS011;60343;-32.030;115.880;2023-03-01T10:57:03;2.95;;;0.57;;
72369;SDS011;60343;-32.030;115.880;2023-03-01T10:59:38;1.67;;;0.43;;
72369;SDS011;60343;-32.030;115.880;2023-03-01T11:02:16;4.05;;;0.60;;
72369;SDS011;60343;-32.030;115.880;2023-03-01T11:04:58;3.83;;;0.60;;
72369;SDS011;60343;-32.030;115.880;2023-03-01T11:07:39;5.15;;;0.73;;
72369;SDS011;60343;-32.030;115.880;2023-03-01T11:10:22;4.60;;;0.73;;
72369;SDS011;60343;-32.030;115.880;2023-03-01T11:13:06;2.88;;;0.60;;
72369;SDS011;60343;-32.030;115.880;2023-03-01T11:15:58;4.30;;;0.60;;
72369;SDS011;60343;-32.030;115.880;2023-03-01T11:18:33;4.20;;;0.60;;
72369;SDS011;60343;-32.030;115.880;2023-03-01T11:21:08;2.95;;;0.68;;
72369;SDS011;60343;-32.030;115.880;2023-03-01T11:23:49;9.07;;;0.73;;
72369;SDS011;60343;-32.030;115.880;2023-03-01T11:26:24;3.92;;;0.65;;
72369;SDS011;60343;-32.030;115.880;2023-03-01T11:29:02;2.60;;;0.30;;
72369;SDS011;60343;-32.030;115.880;2023-03-01T11:31:44;4.10;;;0.50;;
72369;SDS011;60343;-32.030;115.880;2023-03-01T11:34:23;3.67;;;0.63;;
72369;SDS011;60343;-32.030;115.880;2023-03-01T11:37:11;1.90;;;0.40;;
72369;SDS011;60343;-32.030;115.880;2023-03-01T11:40:03;3.63;;;0.80;;
72369;SDS011;60343;-32.030;115.880;2023-03-01T11:42:59;2.92;;;0.60;;
72369;SDS011;60343;-32.030;115.880;2023-03-01T11:45:43;2.40;;;0.60;;
72369;SDS011;60343;-32.030;115.880;2023-03-01T11:48:32;3.70;;;0.65;;
72369;SDS011;60343;-32.030;115.880;2023-03-01T11:51:31;3.08;;;0.60;;
72369;SDS011;60343;-32.030;115.880;2023-03-01T11:54:22;3.42;;;0.60;;
72369;SDS011;60343;-32.030;115.880;2023-03-01T11:57:11;6.43;;;0.60;;
72369;SDS011;60343;-32.030;115.880;2023-03-01T11:59:57;5.03;;;0.70;;
72369;SDS011;60343;-32.030;115.880;2023-03-01T12:02:46;3.50;;;0.70;;
72369;SDS011;60343;-32.030;115.880;2023-03-01T12:08:24;4.30;;;0.90;;
72369;SDS011;60343;-32.030;115.880;2023-03-01T12:11:08;3.97;;;0.82;;
72369;SDS011;60343;-32.030;115.880;2023-03-01T12:14:02;5.65;;;0.80;;
72369;SDS011;60343;-32.030;115.880;2023-03-01T12:17:07;3.63;;;0.60;;
72369;SDS011;60343;-32.030;115.880;2023-03-01T12:20:08;2.95;;;0.63;;
72369;SDS011;60343;-32.030;115.880;2023-03-01T12:26:03;1.38;;;0.35;;
72369;SDS011;60343;-32.030;115.880;2023-03-01T12:29:02;2.53;;;0.82;;
72369;SDS011;60343;-32.030;115.880;2023-03-01T12:31:54;3.88;;;0.52;;
72369;SDS011;60343;-32.030;115.880;2023-03-01T12:37:57;2.20;;;0.55;;
72369;SDS011;60343;-32.030;115.880;2023-03-01T12:41:01;3.95;;;0.70;;
72369;SDS011;60343;-32.030;115.880;2023-03-01T12:44:04;7.15;;;2.05;;
72369;SDS011;60343;-32.030;115.880;2023-03-01T12:46:51;1.95;;;0.50;;
72369;SDS011;60343;-32.030;115.880;2023-03-01T12:49:37;1.90;;;0.40;;
72369;SDS011;60343;-32.030;115.880;2023-03-01T12:52:16;2.47;;;0.52;;
72369;SDS011;60343;-32.030;115.880;2023-03-01T12:55:00;2.20;;;0.60;;
72369;SDS011;60343;-32.030;115.880;2023-03-01T12:57:40;3.70;;;0.70;;
72369;SDS011;60343;-32.030;115.880;2023-03-01T13:00:28;3.00;;;0.40;;
72369;SDS011;60343;-32.030;115.880;2023-03-01T13:03:12;3.33;;;0.40;;
72369;SDS011;60343;-32.030;115.880;2023-03-01T13:06:00;2.72;;;0.60;;
72369;SDS011;60343;-32.030;115.880;2023-03-01T13:08:44;5.82;;;1.52;;
72369;SDS011;60343;-32.030;115.880;2023-03-01T13:11:27;4.63;;;1.10;;
72369;SDS011;60343;-32.030;115.880;2023-03-01T13:17:20;2.05;;;0.55;;
72369;SDS011;60343;-32.030;115.880;2023-03-01T13:20:11;2.00;;;0.47;;
72369;SDS011;60343;-32.030;115.880;2023-03-01T13:22:59;2.72;;;0.50;;
72369;SDS011;60343;-32.030;115.880;2023-03-01T13:28:40;3.33;;;0.60;;
72369;SDS011;60343;-32.030;115.880;2023-03-01T13:34:47;3.63;;;0.57;;
72369;SDS011;60343;-32.030;115.880;2023-03-01T13:37:30;4.20;;;0.70;;
72369;SDS011;60343;-32.030;115.880;2023-03-01T13:43:32;2.50;;;0.65;;
72369;SDS011;60343;-32.030;115.880;2023-03-01T13:46:09;3.92;;;0.63;;
72369;SDS011;60343;-32.030;115.880;2023-03-01T13:48:50;2.83;;;0.50;;
72369;SDS011;60343;-32.030;115.880;2023-03-01T13:51:32;3.33;;;0.65;;
72369;SDS011;60343;-32.030;115.880;2023-03-01T13:54:09;5.43;;;0.82;;
72369;SDS011;60343;-32.030;115.880;2023-03-01T13:56:47;3.25;;;0.70;;
72369;SDS011;60343;-32.030;115.880;2023-03-01T13:59:21;5.65;;;0.73;;
72369;SDS011;60343;-32.030;115.880;2023-03-01T14:01:57;3.25;;;0.68;;
72369;SDS011;60343;-32.030;115.880;2023-03-01T14:04:33;5.75;;;0.93;;
72369;SDS011;60343;-32.030;115.880;2023-03-01T14:07:17;7.03;;;1.00;;
72369;SDS011;60343;-32.030;115.880;2023-03-01T14:09:56;4.20;;;0.80;;
72369;SDS011;60343;-32.030;115.880;2023-03-01T14:12:37;3.40;;;0.90;;
72369;SDS011;60343;-32.030;115.880;2023-03-01T14:15:18;3.97;;;0.80;;
72369;SDS011;60343;-32.030;115.880;2023-03-01T14:18:00;2.80;;;0.50;;
72369;SDS011;60343;-32.030;115.880;2023-03-01T14:20:41;3.58;;;0.60;;
72369;SDS011;60343;-32.030;115.880;2023-03-01T14:25:57;3.65;;;0.70;;
72369;SDS011;60343;-32.030;115.880;2023-03-01T14:28:32;5.00;;;0.80;;
72369;SDS011;60343;-32.030;115.880;2023-03-01T14:34:16;4.35;;;0.90;;
72369;SDS011;60343;-32.030;115.880;2023-03-01T14:36:57;6.70;;;0.90;;
72369;SDS011;60343;-32.030;115.880;2023-03-01T14:39:49;6.57;;;0.93;;
72369;SDS011;60343;-32.030;115.880;2023-03-01T14:42:25;6.95;;;1.10;;
72369;SDS011;60343;-32.030;115.880;2023-03-01T14:45:03;5.72;;;1.08;;
72369;SDS011;60343;-32.030;115.880;2023-03-01T14:47:40;5.00;;;0.90;;
72369;SDS011;60343;-32.030;115.880;2023-03-01T14:50:19;4.07;;;0.85;;
72369;SDS011;60343;-32.030;115.880;2023-03-01T14:52:58;3.65;;;0.60;;
72369;SDS011;60343;-32.030;115.880;2023-03-01T14:55:41;4.88;;;0.85;;
72369;SDS011;60343;-32.030;115.880;2023-03-01T14:58:19;6.55;;;1.05;;
72369;SDS011;60343;-32.030;115.880;2023-03-01T15:00:55;6.55;;;0.82;;
72369;SDS011;60343;-32.030;115.880;2023-03-01T15:03:32;3.55;;;0.80;;
72369;SDS011;60343;-32.030;115.880;2023-03-01T15:06:09;3.55;;;0.80;;
72369;SDS011;60343;-32.030;115.880;2023-03-01T15:08:47;6.00;;;0.73;;
72369;SDS011;60343;-32.030;115.880;2023-03-01T15:11:30;2.25;;;0.80;;
72369;SDS011;60343;-32.030;115.880;2023-03-01T15:17:02;2.63;;;0.70;;
72369;SDS011;60343;-32.030;115.880;2023-03-01T15:19:36;3.00;;;0.68;;
72369;SDS011;60343;-32.030;115.880;2023-03-01T15:22:14;3.90;;;0.80;;
72369;SDS011;60343;-32.030;115.880;2023-03-01T15:24:50;3.30;;;0.60;;
72369;SDS011;60343;-32.030;115.880;2023-03-01T15:27:30;5.43;;;0.85;;
72369;SDS011;60343;-32.030;115.880;2023-03-01T15:30:14;4.55;;;0.80;;
72369;SDS011;60343;-32.030;115.880;2023-03-01T15:35:53;3.13;;;1.00;;
72369;SDS011;60343;-32.030;115.880;2023-03-01T15:38:33;4.20;;;0.90;;
72369;SDS011;60343;-32.030;115.880;2023-03-01T15:41:23;3.80;;;1.00;;
72369;SDS011;60343;-32.030;115.880;2023-03-01T15:44:14;9.23;;;1.00;;
72369;SDS011;60343;-32.030;115.880;2023-03-01T15:46:49;4.97;;;0.82;;
72369;SDS011;60343;-32.030;115.880;2023-03-01T15:49:26;4.00;;;0.73;;
72369;SDS011;60343;-32.030;115.880;2023-03-01T15:52:10;3.85;;;0.90;;